createdAt,value
2023-02-12T00:02:35.641Z,102425.08
2023-02-12T00:07:42.773Z,102432.81
2023-02-12T00:12:49.913Z,102434.86
2023-02-12T00:17:57.011Z,102439.15
2023-02-12T00:23:04.291Z,102452.27
2023-02-12T00:28:11.709Z,102470.01
2023-02-12T00:33:19.041Z,102485.93
2023-02-12T00:38:26.338Z,102491.05
2023-02-12T00:43:33.485Z,102492.80
2023-02-12T00:48:41.261Z,102498.41
2023-02-12T00:53:48.529Z,102511.25
2023-02-12T00:58:55.822Z,102519.89
2023-02-12T01:04:02.958Z,102528.51
2023-02-12T01:09:10.474Z,102542.22
2023-02-12T01:14:17.576Z,102548.63
2023-02-12T01:19:24.900Z,102551.61
2023-02-12T01:24:32.151Z,102552.58
2023-02-12T01:29:40.504Z,102559.13
2023-02-12T01:34:47.680Z,102571.80
2023-02-12T01:39:54.830Z,102578.14
2023-02-12T01:45:46.721Z,102574.30
2023-02-12T01:50:55.741Z,102568.49
2023-02-12T01:56:04.897Z,102563.73
2023-02-12T02:01:19.461Z,102566.36
2023-02-12T02:06:31.228Z,102579.96
2023-02-12T02:11:58.076Z,102592.05
2023-02-12T02:17:25.828Z,102592.20
2023-02-12T02:22:39.255Z,102595.52
2023-02-12T02:28:02.147Z,102599.05
2023-02-12T02:33:20.431Z,102600.89
2023-02-12T02:38:30.929Z,102607.08
2023-02-12T02:43:42.289Z,102608.77
2023-02-12T02:48:53.446Z,102617.58
2023-02-12T02:54:07.537Z,102630.30
2023-02-12T02:59:19.781Z,102633.54
2023-02-12T03:04:34.278Z,102632.23
2023-02-12T03:09:46.312Z,102636.67
2023-02-12T03:14:59.557Z,102647.17
2023-02-12T03:20:13.619Z,102653.63
2023-02-12T03:25:25.278Z,102661.50
2023-02-12T03:30:43.742Z,102664.23
2023-02-12T03:36:03.454Z,102670.98
2023-02-12T03:41:15.376Z,102678.04
2023-02-12T03:46:28.707Z,102690.48
2023-02-12T03:51:39.975Z,102693.73
2023-02-12T03:56:52.621Z,102699.85
2023-02-12T04:02:01.697Z,102708.93
2023-02-12T04:07:09.118Z,102717.10
2023-02-12T04:12:32.284Z,102719.30
2023-02-12T04:17:58.067Z,102723.02
2023-02-12T04:23:14.940Z,102732.89
2023-02-12T04:28:37.337Z,102741.35
2023-02-12T04:33:51.299Z,102747.89
2023-02-12T04:39:02.502Z,102741.67
2023-02-12T04:44:25.639Z,102747.27
2023-02-12T04:49:33.199Z,102757.42
2023-02-12T04:54:40.856Z,102758.38
2023-02-12T04:59:48.056Z,102761.09
2023-02-12T05:04:55.785Z,102761.27
2023-02-12T05:10:03.007Z,102764.80
2023-02-12T05:15:11.022Z,102779.94
2023-02-12T05:20:18.558Z,102791.06
2023-02-12T05:25:25.799Z,102796.09
2023-02-12T05:30:32.976Z,102800.39
2023-02-12T05:35:40.171Z,102815.74
2023-02-12T05:40:47.383Z,102822.20
2023-02-12T05:45:54.740Z,102823.69
2023-02-12T05:51:07.437Z,102827.35
2023-02-12T05:56:17.593Z,102828.13
2023-02-12T06:01:27.509Z,102831.45
2023-02-12T06:06:35.936Z,102838.95
2023-02-12T06:11:43.624Z,102853.48
2023-02-12T06:16:52.492Z,102852.33
2023-02-12T06:21:59.780Z,102851.45
2023-02-12T06:27:06.931Z,102856.95
2023-02-12T06:32:15.584Z,102861.31
2023-02-12T06:37:22.880Z,102857.61
2023-02-12T06:42:31.059Z,102862.81
2023-02-12T06:47:39.289Z,102871.15
2023-02-12T06:52:46.524Z,102872.36
2023-02-12T06:57:53.636Z,102875.27
2023-02-12T07:03:00.847Z,102877.97
2023-02-12T07:08:08.177Z,102883.23
2023-02-12T07:13:14.322Z,102884.20
2023-02-12T07:18:21.446Z,102887.39
2023-02-12T07:23:28.830Z,102898.24
2023-02-12T07:28:36.610Z,102902.08
2023-02-12T07:33:44.370Z,102910.50
2023-02-12T07:38:51.675Z,102917.04
2023-02-12T07:44:00.846Z,102918.11
2023-02-12T07:49:11.081Z,102918.89
2023-02-12T07:54:18.747Z,102923.17
2023-02-12T07:59:25.851Z,102926.14
2023-02-12T08:04:32.991Z,102924.17
2023-02-12T08:09:40.221Z,102931.40
2023-02-12T08:14:47.553Z,102924.23
2023-02-12T08:19:54.690Z,102917.91
2023-02-12T08:25:01.879Z,102920.20
2023-02-12T08:30:10.883Z,102923.64
2023-02-12T08:35:18.223Z,102928.80
2023-02-12T08:40:25.376Z,102930.77
2023-02-12T08:45:33.821Z,102923.80
2023-02-12T08:50:40.972Z,102924.44
2023-02-12T08:55:52.238Z,102921.88
2023-02-12T09:00:59.464Z,102922.64
2023-02-12T09:06:08.330Z,102924.23
2023-02-12T09:11:18.150Z,102929.31
2023-02-12T09:16:25.296Z,102930.19
2023-02-12T09:21:32.544Z,102927.73
2023-02-12T09:26:40.719Z,102923.33
2023-02-12T09:31:47.940Z,102925.73
2023-02-12T09:36:55.242Z,102936.45
2023-02-12T09:42:20.876Z,102942.75
2023-02-12T09:47:33.941Z,102941.19
2023-02-12T09:52:41.498Z,102948.24
2023-02-12T09:57:49.022Z,102961.12
2023-02-12T10:02:56.920Z,102949.69
2023-02-12T10:08:18.606Z,102945.82
2023-02-12T10:13:39.901Z,102963.66
2023-02-12T10:19:02.180Z,102961.86
2023-02-12T10:24:29.940Z,102956.23
2023-02-12T10:29:44.027Z,102953.19
2023-02-12T10:34:52.615Z,102944.08
2023-02-12T10:40:04.474Z,102934.14
2023-02-12T10:45:17.431Z,102926.23
2023-02-12T10:50:35.341Z,102923.45
2023-02-12T10:55:41.319Z,102928.63
2023-02-12T11:00:57.188Z,102933.47
2023-02-12T11:06:16.442Z,102936.16
2023-02-12T11:11:27.357Z,102933.16
2023-02-12T11:16:36.830Z,102924.56
2023-02-12T11:21:44.202Z,102921.59
2023-02-12T11:26:51.840Z,102921.98
2023-02-12T11:32:05.589Z,102917.71
2023-02-12T11:37:19.149Z,102912.98
2023-02-12T11:42:29.239Z,102904.02
2023-02-12T11:47:37.746Z,102897.31
2023-02-12T11:52:45.407Z,102890.96
2023-02-12T11:57:54.184Z,102893.09
2023-02-12T12:03:08.286Z,102888.45
2023-02-12T12:08:25.259Z,102886.16
2023-02-12T12:13:38.322Z,102882.02
2023-02-12T12:19:06.712Z,102880.98
2023-02-12T12:24:21.739Z,102873.34
2023-02-12T12:29:43.581Z,102873.42
2023-02-12T12:34:51.040Z,102861.32
2023-02-12T12:40:31.654Z,102857.12
2023-02-12T12:46:21.033Z,102852.67
2023-02-12T12:51:50.966Z,102839.79
2023-02-12T12:57:05.633Z,102837.11
2023-02-12T13:02:40.050Z,102839.48
2023-02-12T13:07:57.672Z,102837.52
2023-02-12T13:13:21.804Z,102839.61
2023-02-12T13:18:41.105Z,102835.41
2023-02-12T13:23:55.194Z,102834.79
2023-02-12T13:29:07.707Z,102830.73
2023-02-12T13:34:19.585Z,102819.29
2023-02-12T13:39:34.300Z,102814.05
2023-02-12T13:44:52.350Z,102805.48
2023-02-12T13:50:07.884Z,102798.52
2023-02-12T13:55:27.446Z,102798.34
2023-02-12T14:01:00.840Z,102796.55
2023-02-12T14:06:17.533Z,102796.55
2023-02-12T14:11:27.760Z,102797.26
2023-02-12T14:16:43.666Z,102801.13
2023-02-12T14:21:50.949Z,102805.79
2023-02-12T14:26:58.529Z,102816.50
2023-02-12T14:32:28.511Z,102816.83
2023-02-12T14:37:39.863Z,102809.24
2023-02-12T14:42:58.789Z,102798.17
2023-02-12T14:48:07.396Z,102796.67
2023-02-12T14:53:29.046Z,102797.50
2023-02-12T14:58:37.091Z,102798.98
2023-02-12T15:03:47.329Z,102802.60
2023-02-12T15:09:00.400Z,102800.38
2023-02-12T15:14:14.740Z,102792.02
2023-02-12T15:19:40.744Z,102788.64
2023-02-12T15:24:47.950Z,102785.05
2023-02-12T15:29:56.357Z,102789.80
2023-02-12T15:35:03.680Z,102800.80
2023-02-12T15:40:17.614Z,102801.83
2023-02-12T15:45:27.692Z,102805.13
2023-02-12T15:50:36.169Z,102802.73
2023-02-12T15:55:47.068Z,102798.61
2023-02-12T16:00:55.787Z,102794.54
2023-02-12T16:06:11.369Z,102796.09
2023-02-12T16:11:23.482Z,102804.65
2023-02-12T16:16:33.077Z,102798.04
2023-02-12T16:21:41.090Z,102789.13
2023-02-12T16:26:47.771Z,102787.41
2023-02-12T16:32:01.685Z,102787.67
2023-02-12T16:37:45.945Z,102787.98
2023-02-12T16:43:19.907Z,102792.87
2023-02-12T16:48:27.936Z,102801.31
2023-02-12T16:53:43.898Z,102795.54
2023-02-12T16:58:54.780Z,102797.77
2023-02-12T17:04:05.574Z,102796.00
2023-02-12T17:09:13.402Z,102792.48
2023-02-12T17:14:21.703Z,102799.32
2023-02-12T17:19:28.920Z,102804.02
2023-02-12T17:24:36.626Z,102801.27
2023-02-12T17:29:43.900Z,102801.52
2023-02-12T17:34:51.289Z,102804.54
2023-02-12T17:39:58.484Z,102804.74
2023-02-12T17:45:05.974Z,102793.89
2023-02-12T17:50:16.987Z,102791.38
2023-02-12T17:55:25.442Z,102790.10
2023-02-12T18:00:31.268Z,102785.81
2023-02-12T18:05:46.504Z,102786.23
2023-02-12T18:10:54.722Z,102777.84
2023-02-12T18:16:02.812Z,102772.82
2023-02-12T18:21:12.943Z,102772.83
2023-02-12T18:26:21.406Z,102772.70
2023-02-12T18:31:30.121Z,102770.30
2023-02-12T18:36:37.609Z,102766.25
2023-02-12T18:41:44.792Z,102769.55
2023-02-12T18:46:52.027Z,102775.33
2023-02-12T18:51:59.258Z,102778.52
2023-02-12T18:57:06.854Z,102775.20
2023-02-12T19:02:15.718Z,102772.14
2023-02-12T19:07:23.291Z,102770.92
2023-02-12T19:12:30.953Z,102771.54
2023-02-12T19:17:38.291Z,102770.66
2023-02-12T19:22:46.503Z,102776.52
2023-02-12T19:27:54.521Z,102780.02
2023-02-12T19:33:02.792Z,102781.09
2023-02-12T19:38:09.975Z,102780.39
2023-02-12T19:43:17.100Z,102777.41
2023-02-12T19:48:24.497Z,102775.70
2023-02-12T19:53:32.384Z,102773.80
2023-02-12T19:58:40.159Z,102773.09
2023-02-12T20:03:48.629Z,102763.91
2023-02-12T20:08:55.905Z,102758.16
2023-02-12T20:14:03.846Z,102760.27
2023-02-12T20:19:13.788Z,102760.34
2023-02-12T20:24:21.029Z,102761.65
2023-02-12T20:29:29.188Z,102761.39
2023-02-12T20:34:50.270Z,102761.71
2023-02-12T20:39:58.534Z,102758.79
2023-02-12T20:45:06.580Z,102751.49
2023-02-12T20:50:15.125Z,102745.91
2023-02-12T20:55:24.271Z,102744.83
2023-02-12T21:00:31.755Z,102748.92
2023-02-12T21:05:41.459Z,102744.96
2023-02-12T21:10:59.107Z,102738.00
2023-02-12T21:16:10.804Z,102736.77
2023-02-12T21:21:21.290Z,102739.09
2023-02-12T21:26:31.357Z,102738.05
2023-02-12T21:31:42.326Z,102740.36
2023-02-12T21:36:51.055Z,102737.92
2023-02-12T21:42:02.581Z,102738.10
2023-02-12T21:47:10.195Z,102744.16
2023-02-12T21:52:17.905Z,102737.64
2023-02-12T21:57:25.570Z,102740.11
2023-02-12T22:02:33.275Z,102741.02
2023-02-12T22:07:41.219Z,102745.81
2023-02-12T22:12:48.826Z,102745.40
2023-02-12T22:17:59.882Z,102745.37
2023-02-12T22:23:07.525Z,102747.59
2023-02-12T22:28:15.177Z,102747.34
2023-02-12T22:33:22.698Z,102747.61
2023-02-12T22:38:30.533Z,102745.14
2023-02-12T22:43:39.785Z,102747.76
2023-02-12T22:48:48.955Z,102750.70
2023-02-12T22:53:58.078Z,102750.11
2023-02-12T22:59:05.464Z,102747.39
2023-02-12T23:04:19.972Z,102748.08
2023-02-12T23:09:27.660Z,102748.52
2023-02-12T23:14:36.358Z,102748.31
2023-02-12T23:19:43.876Z,102744.81
2023-02-12T23:24:53.773Z,102744.19
2023-02-12T23:30:01.561Z,102742.77
2023-02-12T23:35:07.932Z,102738.10
2023-02-12T23:40:16.901Z,102735.08
2023-02-12T23:45:24.610Z,102732.84
2023-02-12T23:50:31.926Z,102730.50
2023-02-12T23:55:41.129Z,102721.96
